sensor_id;sensor_type;location;lat;lon;timestamp;temperature;humidity
35746;DHT22;21870;42.812;74.628;2022-10-31T00:01:21;7.60;99.90
35746;DHT22;21870;42.812;74.628;2022-10-31T00:03:48;7.60;99.90
35746;DHT22;21870;42.812;74.628;2022-10-31T00:06:15;7.60;99.90
35746;DHT22;21870;42.812;74.628;2022-10-31T00:08:45;7.60;99.90
35746;DHT22;21870;42.812;74.628;2022-10-31T00:11:11;7.60;99.90
35746;DHT22;21870;42.812;74.628;2022-10-31T00:13:38;7.60;99.90
35746;DHT22;21870;42.812;74.628;2022-10-31T00:16:05;7.60;99.90
35746;DHT22;21870;42.812;74.628;2022-10-31T00:18:31;7.70;99.90
35746;DHT22;21870;42.812;74.628;2022-10-31T00:21:01;7.70;99.90
35746;DHT22;21870;42.812;74.628;2022-10-31T00:23:28;7.70;99.90
35746;DHT22;21870;42.812;74.628;2022-10-31T00:25:59;7.80;99.90
35746;DHT22;21870;42.812;74.628;2022-10-31T00:28:25;7.80;99.90
35746;DHT22;21870;42.812;74.628;2022-10-31T00:30:51;7.80;99.90
35746;DHT22;21870;42.812;74.628;2022-10-31T00:33:18;7.80;99.90
35746;DHT22;21870;42.812;74.628;2022-10-31T00:35:49;7.80;99.90
35746;DHT22;21870;42.812;74.628;2022-10-31T00:38:16;7.90;99.90
35746;DHT22;21870;42.812;74.628;2022-10-31T00:40:42;7.90;99.90
35746;DHT22;21870;42.812;74.628;2022-10-31T00:43:08;8.00;99.90
35746;DHT22;21870;42.812;74.628;2022-10-31T00:45:34;8.00;99.90
35746;DHT22;21870;42.812;74.628;2022-10-31T00:48:00;8.00;99.90
35746;DHT22;21870;42.812;74.628;2022-10-31T00:50:26;8.10;99.90
35746;DHT22;21870;42.812;74.628;2022-10-31T00:52:52;8.10;99.90
35746;DHT22;21870;42.812;74.628;2022-10-31T00:55:18;8.10;99.90
35746;DHT22;21870;42.812;74.628;2022-10-31T00:57:47;8.10;99.90
35746;DHT22;21870;42.812;74.628;2022-10-31T01:00:14;8.20;99.90
35746;DHT22;21870;42.812;74.628;2022-10-31T01:02:40;8.20;99.90
35746;DHT22;21870;42.812;74.628;2022-10-31T01:05:06;8.30;99.90
35746;DHT22;21870;42.812;74.628;2022-10-31T01:07:36;8.30;99.90
35746;DHT22;21870;42.812;74.628;2022-10-31T01:10:03;8.40;99.90
35746;DHT22;21870;42.812;74.628;2022-10-31T01:12:29;8.40;99.90
35746;DHT22;21870;42.812;74.628;2022-10-31T01:14:55;8.40;99.90
35746;DHT22;21870;42.812;74.628;2022-10-31T01:17:21;8.40;99.90
35746;DHT22;21870;42.812;74.628;2022-10-31T01:19:47;8.40;99.90
35746;DHT22;21870;42.812;74.628;2022-10-31T01:22:13;8.40;99.90
35746;DHT22;21870;42.812;74.628;2022-10-31T01:24:39;8.50;99.90
35746;DHT22;21870;42.812;74.628;2022-10-31T01:27:05;8.50;99.90
35746;DHT22;21870;42.812;74.628;2022-10-31T01:29:31;8.50;99.90
35746;DHT22;21870;42.812;74.628;2022-10-31T01:31:57;8.50;99.90
35746;DHT22;21870;42.812;74.628;2022-10-31T01:34:23;8.50;99.90
35746;DHT22;21870;42.812;74.628;2022-10-31T01:36:49;8.40;99.90
35746;DHT22;21870;42.812;74.628;2022-10-31T01:39:17;8.40;99.90
35746;DHT22;21870;42.812;74.628;2022-10-31T01:41:47;8.50;99.90
35746;DHT22;21870;42.812;74.628;2022-10-31T01:49:53;8.40;99.90
35746;DHT22;21870;42.812;74.628;2022-10-31T01:52:33;8.40;99.90
35746;DHT22;21870;42.812;74.628;2022-10-31T01:55:05;8.40;99.90
35746;DHT22;21870;42.812;74.628;2022-10-31T01:57:33;8.30;99.90
35746;DHT22;21870;42.812;74.628;2022-10-31T02:00:06;8.30;99.90
35746;DHT22;21870;42.812;74.628;2022-10-31T02:02:32;8.40;99.90
35746;DHT22;21870;42.812;74.628;2022-10-31T02:05:00;8.40;99.90
35746;DHT22;21870;42.812;74.628;2022-10-31T02:07:39;8.40;99.90
35746;DHT22;21870;42.812;74.628;2022-10-31T02:10:05;8.40;99.90
35746;DHT22;21870;42.812;74.628;2022-10-31T02:12:32;8.40;99.90
35746;DHT22;21870;42.812;74.628;2022-10-31T02:15:02;8.40;99.90
35746;DHT22;21870;42.812;74.628;2022-10-31T02:17:29;8.40;99.90
35746;DHT22;21870;42.812;74.628;2022-10-31T02:20:19;8.40;99.90
35746;DHT22;21870;42.812;74.628;2022-10-31T02:25:46;8.50;99.90
35746;DHT22;21870;42.812;74.628;2022-10-31T02:29:08;8.50;99.90
35746;DHT22;21870;42.812;74.628;2022-10-31T02:34:22;8.50;99.90
35746;DHT22;21870;42.812;74.628;2022-10-31T02:36:57;8.50;99.90
35746;DHT22;21870;42.812;74.628;2022-10-31T02:39:29;8.50;99.90
35746;DHT22;21870;42.812;74.628;2022-10-31T02:45:07;8.60;99.90
35746;DHT22;21870;42.812;74.628;2022-10-31T02:47:37;8.60;99.90
35746;DHT22;21870;42.812;74.628;2022-10-31T02:50:19;8.60;99.90
35746;DHT22;21870;42.812;74.628;2022-10-31T02:52:51;8.60;99.90
35746;DHT22;21870;42.812;74.628;2022-10-31T02:58:09;8.70;99.90
35746;DHT22;21870;42.812;74.628;2022-10-31T03:01:10;8.70;99.90
35746;DHT22;21870;42.812;74.628;2022-10-31T03:12:48;8.80;99.90
35746;DHT22;21870;42.812;74.628;2022-10-31T03:15:32;8.80;99.90
35746;DHT22;21870;42.812;74.628;2022-10-31T03:18:29;8.80;99.90
35746;DHT22;21870;42.812;74.628;2022-10-31T03:21:05;8.90;99.90
35746;DHT22;21870;42.812;74.628;2022-10-31T03:23:36;8.90;99.90
35746;DHT22;21870;42.812;74.628;2022-10-31T03:26:06;8.90;99.90
35746;DHT22;21870;42.812;74.628;2022-10-31T03:29:05;9.00;99.90
35746;DHT22;21870;42.812;74.628;2022-10-31T03:31:41;9.10;99.90
35746;DHT22;21870;42.812;74.628;2022-10-31T03:34:10;9.10;99.90
35746;DHT22;21870;42.812;74.628;2022-10-31T03:36:38;9.10;99.90
35746;DHT22;21870;42.812;74.628;2022-10-31T03:39:09;9.20;99.90
35746;DHT22;21870;42.812;74.628;2022-10-31T03:41:42;9.40;99.90
35746;DHT22;21870;42.812;74.628;2022-10-31T03:44:14;9.50;99.90
35746;DHT22;21870;42.812;74.628;2022-10-31T03:46:42;9.60;99.90
35746;DHT22;21870;42.812;74.628;2022-10-31T03:49:08;9.60;99.90
35746;DHT22;21870;42.812;74.628;2022-10-31T03:52:10;9.70;99.90
35746;DHT22;21870;42.812;74.628;2022-10-31T03:54:45;9.80;99.90
35746;DHT22;21870;42.812;74.628;2022-10-31T03:57:26;9.90;99.90
35746;DHT22;21870;42.812;74.628;2022-10-31T04:00:04;10.00;99.90
35746;DHT22;21870;42.812;74.628;2022-10-31T04:02:32;10.10;99.90
35746;DHT22;21870;42.812;74.628;2022-10-31T04:05:00;10.30;99.90
35746;DHT22;21870;42.812;74.628;2022-10-31T04:07:30;10.40;99.90
35746;DHT22;21870;42.812;74.628;2022-10-31T04:09:57;10.50;99.90
35746;DHT22;21870;42.812;74.628;2022-10-31T04:12:26;10.60;99.90
35746;DHT22;21870;42.812;74.628;2022-10-31T04:14:55;10.60;99.90
35746;DHT22;21870;42.812;74.628;2022-10-31T04:17:23;10.70;99.90
35746;DHT22;21870;42.812;74.628;2022-10-31T04:19:51;10.80;99.90
35746;DHT22;21870;42.812;74.628;2022-10-31T04:22:17;11.00;99.90
35746;DHT22;21870;42.812;74.628;2022-10-31T04:24:43;11.10;99.90
35746;DHT22;21870;42.812;74.628;2022-10-31T04:27:11;11.20;99.90
35746;DHT22;21870;42.812;74.628;2022-10-31T04:29:37;11.20;99.90
35746;DHT22;21870;42.812;74.628;2022-10-31T04:32:04;11.40;99.90
35746;DHT22;21870;42.812;74.628;2022-10-31T04:34:30;11.40;99.90
35746;DHT22;21870;42.812;74.628;2022-10-31T04:36:56;11.50;99.90
35746;DHT22;21870;42.812;74.628;2022-10-31T04:39:22;11.60;99.90
35746;DHT22;21870;42.812;74.628;2022-10-31T04:41:48;11.70;99.90
35746;DHT22;21870;42.812;74.628;2022-10-31T04:44:14;11.80;99.90
35746;DHT22;21870;42.812;74.628;2022-10-31T04:46:40;11.90;99.90
35746;DHT22;21870;42.812;74.628;2022-10-31T04:49:06;12.00;99.90
35746;DHT22;21870;42.812;74.628;2022-10-31T04:51:32;12.10;99.90
35746;DHT22;21870;42.812;74.628;2022-10-31T04:53:58;12.20;99.90
35746;DHT22;21870;42.812;74.628;2022-10-31T04:56:24;12.10;99.90
35746;DHT22;21870;42.812;74.628;2022-10-31T04:58:50;12.20;99.90
35746;DHT22;21870;42.812;74.628;2022-10-31T05:01:16;12.30;99.90
35746;DHT22;21870;42.812;74.628;2022-10-31T05:03:43;12.50;99.90
35746;DHT22;21870;42.812;74.628;2022-10-31T05:06:09;12.70;99.90
35746;DHT22;21870;42.812;74.628;2022-10-31T05:08:35;12.80;99.90
35746;DHT22;21870;42.812;74.628;2022-10-31T05:11:02;12.90;99.90
35746;DHT22;21870;42.812;74.628;2022-10-31T05:13:29;13.00;99.90
35746;DHT22;21870;42.812;74.628;2022-10-31T05:15:55;13.10;99.90
35746;DHT22;21870;42.812;74.628;2022-10-31T05:18:21;13.20;99.90
35746;DHT22;21870;42.812;74.628;2022-10-31T05:20:48;13.20;99.90
35746;DHT22;21870;42.812;74.628;2022-10-31T05:23:20;13.40;99.90
35746;DHT22;21870;42.812;74.628;2022-10-31T05:25:46;13.50;99.90
35746;DHT22;21870;42.812;74.628;2022-10-31T05:28:13;13.60;99.90
35746;DHT22;21870;42.812;74.628;2022-10-31T05:30:39;13.90;99.90
35746;DHT22;21870;42.812;74.628;2022-10-31T05:33:05;14.00;99.90
35746;DHT22;21870;42.812;74.628;2022-10-31T05:35:32;14.30;99.90
35746;DHT22;21870;42.812;74.628;2022-10-31T05:37:58;14.70;99.90
35746;DHT22;21870;42.812;74.628;2022-10-31T05:40:25;15.00;99.90
35746;DHT22;21870;42.812;74.628;2022-10-31T05:42:53;15.60;99.90
35746;DHT22;21870;42.812;74.628;2022-10-31T05:45:20;16.20;99.90
35746;DHT22;21870;42.812;74.628;2022-10-31T05:47:57;16.40;99.90
35746;DHT22;21870;42.812;74.628;2022-10-31T05:50:25;16.30;99.90
35746;DHT22;21870;42.812;74.628;2022-10-31T05:52:59;16.10;99.90
35746;DHT22;21870;42.812;74.628;2022-10-31T05:55:26;16.40;99.90
35746;DHT22;21870;42.812;74.628;2022-10-31T05:57:53;16.50;99.90
35746;DHT22;21870;42.812;74.628;2022-10-31T06:00:20;16.40;99.90
35746;DHT22;21870;42.812;74.628;2022-10-31T06:02:46;16.30;99.90
35746;DHT22;21870;42.812;74.628;2022-10-31T06:05:13;16.10;99.90
35746;DHT22;21870;42.812;74.628;2022-10-31T06:07:39;16.00;99.90
35746;DHT22;21870;42.812;74.628;2022-10-31T06:10:06;15.90;99.90
35746;DHT22;21870;42.812;74.628;2022-10-31T06:12:34;15.40;99.90
35746;DHT22;21870;42.812;74.628;2022-10-31T06:15:05;15.10;99.90
35746;DHT22;21870;42.812;74.628;2022-10-31T06:17:31;14.90;99.90
35746;DHT22;21870;42.812;74.628;2022-10-31T06:19:58;14.80;99.90
35746;DHT22;21870;42.812;74.628;2022-10-31T06:22:24;14.70;99.90
35746;DHT22;21870;42.812;74.628;2022-10-31T06:24:50;14.70;99.90
35746;DHT22;21870;42.812;74.628;2022-10-31T06:27:16;14.80;99.90
35746;DHT22;21870;42.812;74.628;2022-10-31T06:29:42;14.70;99.90
35746;DHT22;21870;42.812;74.628;2022-10-31T06:32:11;14.70;99.90
35746;DHT22;21870;42.812;74.628;2022-10-31T06:34:38;14.70;99.90
35746;DHT22;21870;42.812;74.628;2022-10-31T06:37:09;14.90;99.90
35746;DHT22;21870;42.812;74.628;2022-10-31T06:39:36;15.10;99.90
35746;DHT22;21870;42.812;74.628;2022-10-31T06:42:02;15.20;99.90
35746;DHT22;21870;42.812;74.628;2022-10-31T06:44:29;15.20;99.90
35746;DHT22;21870;42.812;74.628;2022-10-31T06:46:55;15.00;99.90
35746;DHT22;21870;42.812;74.628;2022-10-31T06:49:21;14.80;99.90
35746;DHT22;21870;42.812;74.628;2022-10-31T06:51:48;14.90;99.90
35746;DHT22;21870;42.812;74.628;2022-10-31T06:54:15;14.70;99.90
35746;DHT22;21870;42.812;74.628;2022-10-31T06:56:41;14.60;99.90
35746;DHT22;21870;42.812;74.628;2022-10-31T06:59:08;14.50;99.90
35746;DHT22;21870;42.812;74.628;2022-10-31T07:01:34;14.40;99.90
35746;DHT22;21870;42.812;74.628;2022-10-31T07:04:00;14.50;99.90
35746;DHT22;21870;42.812;74.628;2022-10-31T07:06:26;14.70;99.90
35746;DHT22;21870;42.812;74.628;2022-10-31T07:08:52;14.80;99.90
35746;DHT22;21870;42.812;74.628;2022-10-31T07:11:18;14.90;99.90
35746;DHT22;21870;42.812;74.628;2022-10-31T07:13:44;15.10;99.90
35746;DHT22;21870;42.812;74.628;2022-10-31T07:16:10;15.30;99.90
35746;DHT22;21870;42.812;74.628;2022-10-31T07:18:38;15.30;99.90
35746;DHT22;21870;42.812;74.628;2022-10-31T07:21:05;15.60;99.90
35746;DHT22;21870;42.812;74.628;2022-10-31T07:23:31;15.60;99.90
35746;DHT22;21870;42.812;74.628;2022-10-31T07:25:58;15.70;99.90
35746;DHT22;21870;42.812;74.628;2022-10-31T07:28:27;15.60;99.90
35746;DHT22;21870;42.812;74.628;2022-10-31T07:30:57;15.70;99.90
35746;DHT22;21870;42.812;74.628;2022-10-31T07:33:24;15.60;99.90
35746;DHT22;21870;42.812;74.628;2022-10-31T07:35:53;15.50;99.90
35746;DHT22;21870;42.812;74.628;2022-10-31T07:38:19;15.80;99.90
35746;DHT22;21870;42.812;74.628;2022-10-31T07:40:50;16.30;99.90
35746;DHT22;21870;42.812;74.628;2022-10-31T07:43:20;16.70;99.90
35746;DHT22;21870;42.812;74.628;2022-10-31T07:45:50;17.20;99.90
35746;DHT22;21870;42.812;74.628;2022-10-31T07:48:16;17.60;99.90
35746;DHT22;21870;42.812;74.628;2022-10-31T07:50:42;17.60;99.90
35746;DHT22;21870;42.812;74.628;2022-10-31T07:53:10;17.40;99.90
35746;DHT22;21870;42.812;74.628;2022-10-31T07:55:37;17.30;99.90
35746;DHT22;21870;42.812;74.628;2022-10-31T07:58:09;17.50;99.90
35746;DHT22;21870;42.812;74.628;2022-10-31T08:00:36;17.50;99.90
35746;DHT22;21870;42.812;74.628;2022-10-31T08:03:05;17.40;99.90
35746;DHT22;21870;42.812;74.628;2022-10-31T08:05:32;17.20;99.90
35746;DHT22;21870;42.812;74.628;2022-10-31T08:07:58;17.00;99.90
35746;DHT22;21870;42.812;74.628;2022-10-31T08:10:25;16.70;99.90
35746;DHT22;21870;42.812;74.628;2022-10-31T08:12:56;16.70;99.90
35746;DHT22;21870;42.812;74.628;2022-10-31T08:15:22;16.50;99.90
35746;DHT22;21870;42.812;74.628;2022-10-31T08:17:48;16.30;99.90
35746;DHT22;21870;42.812;74.628;2022-10-31T08:20:14;16.10;99.90
35746;DHT22;21870;42.812;74.628;2022-10-31T08:22:52;15.80;99.90
35746;DHT22;21870;42.812;74.628;2022-10-31T08:25:19;15.40;99.90
35746;DHT22;21870;42.812;74.628;2022-10-31T08:27:52;15.00;99.90
35746;DHT22;21870;42.812;74.628;2022-10-31T08:30:20;14.90;99.90
35746;DHT22;21870;42.812;74.628;2022-10-31T08:32:47;14.90;99.90
35746;DHT22;21870;42.812;74.628;2022-10-31T08:35:13;14.70;99.90
35746;DHT22;21870;42.812;74.628;2022-10-31T08:37:39;14.50;99.90
35746;DHT22;21870;42.812;74.628;2022-10-31T08:40:06;14.50;99.90
35746;DHT22;21870;42.812;74.628;2022-10-31T08:42:32;14.50;99.90
35746;DHT22;21870;42.812;74.628;2022-10-31T08:44:58;14.30;99.90
35746;DHT22;21870;42.812;74.628;2022-10-31T08:47:24;14.20;99.90
35746;DHT22;21870;42.812;74.628;2022-10-31T08:49:50;14.30;99.90
35746;DHT22;21870;42.812;74.628;2022-10-31T08:52:16;14.20;99.90
35746;DHT22;21870;42.812;74.628;2022-10-31T08:54:42;14.00;99.90
35746;DHT22;21870;42.812;74.628;2022-10-31T08:57:08;13.90;99.90
35746;DHT22;21870;42.812;74.628;2022-10-31T08:59:34;14.00;99.90
35746;DHT22;21870;42.812;74.628;2022-10-31T09:02:00;14.10;99.90
35746;DHT22;21870;42.812;74.628;2022-10-31T09:04:27;14.20;99.90
35746;DHT22;21870;42.812;74.628;2022-10-31T09:06:53;14.20;99.90
35746;DHT22;21870;42.812;74.628;2022-10-31T09:09:19;14.20;99.90
35746;DHT22;21870;42.812;74.628;2022-10-31T09:11:45;14.20;99.90
35746;DHT22;21870;42.812;74.628;2022-10-31T09:14:11;14.10;99.90
35746;DHT22;21870;42.812;74.628;2022-10-31T09:16:37;14.10;99.90
35746;DHT22;21870;42.812;74.628;2022-10-31T09:19:03;14.00;99.90
35746;DHT22;21870;42.812;74.628;2022-10-31T09:21:29;14.10;99.90
35746;DHT22;21870;42.812;74.628;2022-10-31T09:23:55;13.90;99.90
35746;DHT22;21870;42.812;74.628;2022-10-31T09:26:21;14.00;99.90
35746;DHT22;21870;42.812;74.628;2022-10-31T09:28:47;13.90;99.90
35746;DHT22;21870;42.812;74.628;2022-10-31T09:31:13;13.90;99.90
35746;DHT22;21870;42.812;74.628;2022-10-31T09:33:39;13.90;99.90
35746;DHT22;21870;42.812;74.628;2022-10-31T09:36:05;13.70;99.90
35746;DHT22;21870;42.812;74.628;2022-10-31T09:38:31;13.60;99.90
35746;DHT22;21870;42.812;74.628;2022-10-31T09:52:33;13.20;99.90
35746;DHT22;21870;42.812;74.628;2022-10-31T09:55:02;13.30;99.90
35746;DHT22;21870;42.812;74.628;2022-10-31T09:57:36;13.30;99.90
35746;DHT22;21870;42.812;74.628;2022-10-31T10:00:10;13.30;99.90
35746;DHT22;21870;42.812;74.628;2022-10-31T10:02:51;13.20;99.90
35746;DHT22;21870;42.812;74.628;2022-10-31T10:05:24;13.20;99.90
35746;DHT22;21870;42.812;74.628;2022-10-31T10:07:59;13.20;99.90
35746;DHT22;21870;42.812;74.628;2022-10-31T10:10:51;13.30;99.90
35746;DHT22;21870;42.812;74.628;2022-10-31T10:24:47;13.00;99.90
35746;DHT22;21870;42.812;74.628;2022-10-31T10:30:34;13.00;99.90
35746;DHT22;21870;42.812;74.628;2022-10-31T10:33:05;13.00;99.90
35746;DHT22;21870;42.812;74.628;2022-10-31T10:35:43;12.90;99.90
35746;DHT22;21870;42.812;74.628;2022-10-31T10:38:25;13.00;99.90
35746;DHT22;21870;42.812;74.628;2022-10-31T10:40:53;13.00;99.90
35746;DHT22;21870;42.812;74.628;2022-10-31T10:43:38;12.90;99.90
35746;DHT22;21870;42.812;74.628;2022-10-31T10:49:08;12.90;99.90
35746;DHT22;21870;42.812;74.628;2022-10-31T10:51:46;12.90;99.90
35746;DHT22;21870;42.812;74.628;2022-10-31T10:59:16;13.10;99.90
35746;DHT22;21870;42.812;74.628;2022-10-31T11:01:43;13.10;99.90
35746;DHT22;21870;42.812;74.628;2022-10-31T11:04:34;13.10;99.90
35746;DHT22;21870;42.812;74.628;2022-10-31T11:07:06;13.10;99.90
35746;DHT22;21870;42.812;74.628;2022-10-31T11:09:34;13.10;99.90
35746;DHT22;21870;42.812;74.628;2022-10-31T11:12:09;13.20;99.90
35746;DHT22;21870;42.812;74.628;2022-10-31T11:14:44;13.20;99.90
35746;DHT22;21870;42.812;74.628;2022-10-31T11:17:30;13.30;99.90
35746;DHT22;21870;42.812;74.628;2022-10-31T11:22:28;13.40;99.90
35746;DHT22;21870;42.812;74.628;2022-10-31T11:24:54;13.40;99.90
35746;DHT22;21870;42.812;74.628;2022-10-31T11:27:22;13.30;99.90
35746;DHT22;21870;42.812;74.628;2022-10-31T11:29:51;13.20;99.90
35746;DHT22;21870;42.812;74.628;2022-10-31T11:32:27;13.10;99.90
35746;DHT22;21870;42.812;74.628;2022-10-31T11:34:58;13.00;99.90
35746;DHT22;21870;42.812;74.628;2022-10-31T11:37:27;13.00;99.90
35746;DHT22;21870;42.812;74.628;2022-10-31T11:39:58;13.10;99.90
35746;DHT22;21870;42.812;74.628;2022-10-31T11:42:27;13.00;99.90
35746;DHT22;21870;42.812;74.628;2022-10-31T11:44:55;12.90;99.90
35746;DHT22;21870;42.812;74.628;2022-10-31T11:47:29;12.90;99.90
35746;DHT22;21870;42.812;74.628;2022-10-31T11:50:01;13.00;99.90
35746;DHT22;21870;42.812;74.628;2022-10-31T11:52:31;12.90;99.90
35746;DHT22;21870;42.812;74.628;2022-10-31T11:55:14;12.90;99.90
35746;DHT22;21870;42.812;74.628;2022-10-31T11:57:51;12.90;99.90
35746;DHT22;21870;42.812;74.628;2022-10-31T12:00:26;13.00;99.90
35746;DHT22;21870;42.812;74.628;2022-10-31T12:08:20;13.00;99.90
35746;DHT22;21870;42.812;74.628;2022-10-31T12:11:01;13.10;99.90
35746;DHT22;21870;42.812;74.628;2022-10-31T12:16:20;13.10;99.90
35746;DHT22;21870;42.812;74.628;2022-10-31T12:19:17;13.10;99.90
35746;DHT22;21870;42.812;74.628;2022-10-31T12:22:10;13.10;99.90
35746;DHT22;21870;42.812;74.628;2022-10-31T12:36:05;13.20;99.90
35746;DHT22;21870;42.812;74.628;2022-10-31T12:38:47;13.10;99.90
35746;DHT22;21870;42.812;74.628;2022-10-31T12:41:21;13.20;99.90
35746;DHT22;21870;42.812;74.628;2022-10-31T12:43:57;13.10;99.90
35746;DHT22;21870;42.812;74.628;2022-10-31T12:46:48;13.00;99.90
35746;DHT22;21870;42.812;74.628;2022-10-31T12:52:36;13.10;99.90
35746;DHT22;21870;42.812;74.628;2022-10-31T12:55:08;13.10;99.90
35746;DHT22;21870;42.812;74.628;2022-10-31T12:57:47;13.10;99.90
35746;DHT22;21870;42.812;74.628;2022-10-31T13:00:16;13.10;99.90
35746;DHT22;21870;42.812;74.628;2022-10-31T13:05:37;13.00;99.90
35746;DHT22;21870;42.812;74.628;2022-10-31T13:08:10;12.90;99.90
35746;DHT22;21870;42.812;74.628;2022-10-31T13:16:21;12.70;99.90
35746;DHT22;21870;42.812;74.628;2022-10-31T13:18:55;12.60;99.90
35746;DHT22;21870;42.812;74.628;2022-10-31T13:21:39;12.50;99.90
35746;DHT22;21870;42.812;74.628;2022-10-31T13:24:13;12.50;99.90
35746;DHT22;21870;42.812;74.628;2022-10-31T13:26:52;12.40;99.90
35746;DHT22;21870;42.812;74.628;2022-10-31T13:29:29;12.30;99.90
35746;DHT22;21870;42.812;74.628;2022-10-31T13:31:56;12.10;99.90
35746;DHT22;21870;42.812;74.628;2022-10-31T13:43:06;11.60;99.90
35746;DHT22;21870;42.812;74.628;2022-10-31T13:45:46;11.50;99.90
35746;DHT22;21870;42.812;74.628;2022-10-31T13:50:54;11.40;99.90
35746;DHT22;21870;42.812;74.628;2022-10-31T13:53:22;11.40;99.90
35746;DHT22;21870;42.812;74.628;2022-10-31T13:56:01;11.30;99.90
35746;DHT22;21870;42.812;74.628;2022-10-31T13:58:29;11.30;99.90
35746;DHT22;21870;42.812;74.628;2022-10-31T14:01:17;11.30;99.90
35746;DHT22;21870;42.812;74.628;2022-10-31T14:03:46;11.20;99.90
35746;DHT22;21870;42.812;74.628;2022-10-31T14:06:15;11.20;99.90
35746;DHT22;21870;42.812;74.628;2022-10-31T14:08:48;11.10;99.90
35746;DHT22;21870;42.812;74.628;2022-10-31T14:11:23;10.80;99.90
35746;DHT22;21870;42.812;74.628;2022-10-31T14:13:52;10.70;99.90
35746;DHT22;21870;42.812;74.628;2022-10-31T14:16:29;10.70;99.90
35746;DHT22;21870;42.812;74.628;2022-10-31T14:19:08;10.70;99.90
35746;DHT22;21870;42.812;74.628;2022-10-31T14:21:41;10.60;99.90
35746;DHT22;21870;42.812;74.628;2022-10-31T14:27:01;10.50;99.90
35746;DHT22;21870;42.812;74.628;2022-10-31T14:29:28;10.50;99.90
35746;DHT22;21870;42.812;74.628;2022-10-31T14:32:22;10.50;99.90
35746;DHT22;21870;42.812;74.628;2022-10-31T14:34:53;10.70;99.90
35746;DHT22;21870;42.812;74.628;2022-10-31T14:37:49;10.80;99.90
35746;DHT22;21870;42.812;74.628;2022-10-31T14:47:19;10.90;99.90
35746;DHT22;21870;42.812;74.628;2022-10-31T14:49:39;10.70;99.90
35746;DHT22;21870;42.812;74.628;2022-10-31T14:52:12;10.70;99.90
35746;DHT22;21870;42.812;74.628;2022-10-31T14:54:48;10.60;99.90
35746;DHT22;21870;42.812;74.628;2022-10-31T14:57:28;10.70;99.90
35746;DHT22;21870;42.812;74.628;2022-10-31T15:00:06;10.80;99.90
35746;DHT22;21870;42.812;74.628;2022-10-31T15:05:07;10.70;99.90
35746;DHT22;21870;42.812;74.628;2022-10-31T15:07:33;10.60;99.90
35746;DHT22;21870;42.812;74.628;2022-10-31T15:10:03;10.70;99.90
35746;DHT22;21870;42.812;74.628;2022-10-31T15:12:34;10.70;99.90
35746;DHT22;21870;42.812;74.628;2022-10-31T15:15:14;10.80;99.90
35746;DHT22;21870;42.812;74.628;2022-10-31T15:17:45;10.80;99.90
35746;DHT22;21870;42.812;74.628;2022-10-31T15:20:20;10.70;99.90
35746;DHT22;21870;42.812;74.628;2022-10-31T15:22:47;10.60;99.90
35746;DHT22;21870;42.812;74.628;2022-10-31T15:25:19;10.70;99.90
35746;DHT22;21870;42.812;74.628;2022-10-31T15:27:49;10.70;99.90
35746;DHT22;21870;42.812;74.628;2022-10-31T15:30:20;10.50;99.90
35746;DHT22;21870;42.812;74.628;2022-10-31T15:32:47;10.60;99.90
35746;DHT22;21870;42.812;74.628;2022-10-31T15:35:24;10.60;99.90
35746;DHT22;21870;42.812;74.628;2022-10-31T15:37:55;10.60;99.90
35746;DHT22;21870;42.812;74.628;2022-10-31T15:40:23;10.50;99.90
35746;DHT22;21870;42.812;74.628;2022-10-31T15:43:04;10.40;99.90
35746;DHT22;21870;42.812;74.628;2022-10-31T15:45:32;10.40;99.90
35746;DHT22;21870;42.812;74.628;2022-10-31T15:48:00;10.30;99.90
35746;DHT22;21870;42.812;74.628;2022-10-31T15:50:32;10.30;99.90
35746;DHT22;21870;42.812;74.628;2022-10-31T15:53:01;10.50;99.90
35746;DHT22;21870;42.812;74.628;2022-10-31T15:55:31;10.40;99.90
35746;DHT22;21870;42.812;74.628;2022-10-31T15:58:03;10.30;99.90
35746;DHT22;21870;42.812;74.628;2022-10-31T16:00:36;10.30;99.90
35746;DHT22;21870;42.812;74.628;2022-10-31T16:05:48;10.20;99.90
35746;DHT22;21870;42.812;74.628;2022-10-31T16:10:56;10.40;99.90
35746;DHT22;21870;42.812;74.628;2022-10-31T16:13:31;10.40;99.90
35746;DHT22;21870;42.812;74.628;2022-10-31T16:16:00;10.30;99.90
35746;DHT22;21870;42.812;74.628;2022-10-31T16:18:30;10.40;99.90
35746;DHT22;21870;42.812;74.628;2022-10-31T16:21:01;10.30;99.90
35746;DHT22;21870;42.812;74.628;2022-10-31T16:23:27;10.20;99.90
35746;DHT22;21870;42.812;74.628;2022-10-31T16:25:54;10.40;99.90
35746;DHT22;21870;42.812;74.628;2022-10-31T16:28:22;10.50;99.90
35746;DHT22;21870;42.812;74.628;2022-10-31T16:30:51;10.50;99.90
35746;DHT22;21870;42.812;74.628;2022-10-31T16:35:49;10.40;99.90
35746;DHT22;21870;42.812;74.628;2022-10-31T16:38:16;10.50;99.90
35746;DHT22;21870;42.812;74.628;2022-10-31T16:40:42;10.40;99.90
35746;DHT22;21870;42.812;74.628;2022-10-31T16:43:14;10.40;99.90
35746;DHT22;21870;42.812;74.628;2022-10-31T16:45:50;10.40;99.90
35746;DHT22;21870;42.812;74.628;2022-10-31T16:48:21;10.40;99.90
35746;DHT22;21870;42.812;74.628;2022-10-31T16:50:50;10.50;99.90
35746;DHT22;21870;42.812;74.628;2022-10-31T16:53:18;10.50;99.90
35746;DHT22;21870;42.812;74.628;2022-10-31T16:55:53;10.40;99.90
35746;DHT22;21870;42.812;74.628;2022-10-31T16:58:34;10.30;99.90
35746;DHT22;21870;42.812;74.628;2022-10-31T17:01:04;10.10;99.90
35746;DHT22;21870;42.812;74.628;2022-10-31T17:03:31;10.10;99.90
35746;DHT22;21870;42.812;74.628;2022-10-31T17:05:57;10.10;99.90
35746;DHT22;21870;42.812;74.628;2022-10-31T17:08:23;10.00;99.90
35746;DHT22;21870;42.812;74.628;2022-10-31T17:10:55;10.00;99.90
35746;DHT22;21870;42.812;74.628;2022-10-31T17:13:27;10.10;99.90
35746;DHT22;21870;42.812;74.628;2022-10-31T17:15:57;9.90;99.90
35746;DHT22;21870;42.812;74.628;2022-10-31T17:18:24;9.70;99.90
35746;DHT22;21870;42.812;74.628;2022-10-31T17:20:50;9.60;99.90
35746;DHT22;21870;42.812;74.628;2022-10-31T17:23:20;9.40;99.90
35746;DHT22;21870;42.812;74.628;2022-10-31T17:25:46;9.30;99.90
35746;DHT22;21870;42.812;74.628;2022-10-31T17:28:13;9.10;99.90
35746;DHT22;21870;42.812;74.628;2022-10-31T17:30:41;9.10;99.90
35746;DHT22;21870;42.812;74.628;2022-10-31T17:33:12;9.10;99.90
35746;DHT22;21870;42.812;74.628;2022-10-31T17:35:40;9.00;99.90
35746;DHT22;21870;42.812;74.628;2022-10-31T17:38:06;8.90;99.90
35746;DHT22;21870;42.812;74.628;2022-10-31T17:40:33;8.70;99.90
35746;DHT22;21870;42.812;74.628;2022-10-31T17:42:59;8.60;99.90
35746;DHT22;21870;42.812;74.628;2022-10-31T17:45:26;8.50;99.90